createdAt,value
2022-12-15T00:00:43.312Z,7.09
2022-12-15T00:03:47.771Z,7.07
2022-12-15T00:06:53.348Z,7.09
2022-12-15T00:09:57.505Z,7.12
2022-12-15T00:13:01.916Z,7.14
2022-12-15T00:16:07.908Z,7.18
2022-12-15T00:19:12.289Z,7.20
2022-12-15T00:22:16.905Z,7.22
2022-12-15T00:25:21.703Z,7.23
2022-12-15T00:28:26.233Z,7.26
2022-12-15T00:31:30.841Z,7.27
2022-12-15T00:34:35.441Z,7.29
2022-12-15T00:37:39.838Z,7.31
2022-12-15T00:40:25.597Z,7.30
2022-12-15T00:43:12.205Z,7.36
2022-12-15T00:46:17.089Z,7.35
2022-12-15T00:49:03.489Z,7.36
2022-12-15T00:52:07.708Z,7.37
2022-12-15T00:55:12.149Z,7.39
2022-12-15T00:58:17.828Z,7.36
2022-12-15T01:01:27.052Z,7.40
2022-12-15T01:04:31.373Z,7.42
2022-12-15T01:07:36.640Z,7.42
2022-12-15T01:10:41.267Z,7.45
2022-12-15T01:13:45.883Z,7.43
2022-12-15T01:16:54.554Z,7.46
2022-12-15T01:19:58.926Z,7.46
2022-12-15T01:22:46.592Z,7.48
2022-12-15T01:25:32.485Z,7.49
2022-12-15T01:28:19.408Z,7.47
2022-12-15T01:31:12.500Z,7.50
2022-12-15T01:33:58.348Z,7.47
2022-12-15T01:36:44.044Z,7.49
2022-12-15T01:39:49.847Z,7.51
2022-12-15T01:42:35.666Z,7.50
2022-12-15T01:45:24.425Z,7.43
2022-12-15T01:48:13.504Z,7.46
2022-12-15T01:51:11.428Z,7.46
2022-12-15T01:54:00.456Z,7.46
2022-12-15T01:56:49.659Z,7.44
2022-12-15T01:59:39.418Z,7.42
2022-12-15T02:02:27.307Z,7.45
2022-12-15T02:05:13.595Z,7.44
2022-12-15T02:08:00.178Z,7.46
2022-12-15T02:11:08.312Z,7.46
2022-12-15T02:14:24.563Z,7.45
2022-12-15T02:17:28.075Z,7.47
2022-12-15T02:20:35.758Z,7.45
2022-12-15T02:23:27.520Z,7.47
2022-12-15T02:26:47.118Z,7.44
2022-12-15T02:30:14.969Z,7.45
2022-12-15T02:33:19.336Z,7.47
2022-12-15T02:36:27.896Z,7.46
2022-12-15T02:39:14.630Z,7.45
2022-12-15T02:42:00.919Z,7.49
2022-12-15T02:44:56.379Z,7.45
2022-12-15T02:47:49.286Z,7.50
2022-12-15T02:50:58.277Z,7.49
2022-12-15T02:53:47.092Z,7.51
2022-12-15T02:56:50.508Z,7.47
2022-12-15T02:59:42.360Z,7.49
2022-12-15T03:02:31.527Z,7.48
2022-12-15T03:05:19.234Z,7.49
2022-12-15T03:08:05.230Z,7.47
2022-12-15T03:10:53.030Z,7.51
2022-12-15T03:13:41.647Z,7.50
2022-12-15T03:16:27.832Z,7.49
2022-12-15T03:19:13.971Z,7.48
2022-12-15T03:22:00.002Z,7.51
2022-12-15T03:24:45.846Z,7.54
2022-12-15T03:27:32.404Z,7.54
2022-12-15T03:30:18.969Z,7.56
2022-12-15T03:33:05.059Z,7.57
2022-12-15T03:35:51.355Z,7.56
2022-12-15T03:38:37.299Z,7.57
2022-12-15T03:41:23.042Z,7.59
2022-12-15T03:44:09.619Z,7.59
2022-12-15T03:47:01.270Z,7.60
2022-12-15T03:49:50.079Z,7.58
2022-12-15T03:52:36.201Z,7.58
2022-12-15T03:55:22.975Z,7.54
2022-12-15T03:58:08.721Z,7.57
2022-12-15T04:00:55.838Z,7.59
2022-12-15T04:03:41.650Z,7.59
2022-12-15T04:06:28.257Z,7.61
2022-12-15T04:09:14.343Z,7.61
2022-12-15T04:12:00.093Z,7.60
2022-12-15T04:14:45.779Z,7.60
2022-12-15T04:17:31.470Z,7.61
2022-12-15T04:20:17.271Z,7.60
2022-12-15T04:23:03.410Z,7.61
2022-12-15T04:26:08.522Z,7.56
2022-12-15T04:29:13.184Z,7.59
2022-12-15T04:32:17.223Z,7.59
2022-12-15T04:35:21.632Z,7.59
2022-12-15T04:38:26.080Z,7.60
2022-12-15T04:41:31.611Z,7.58
2022-12-15T04:44:36.500Z,7.55
2022-12-15T04:47:40.798Z,7.55
2022-12-15T04:50:45.162Z,7.53
2022-12-15T04:53:49.609Z,7.54
2022-12-15T04:56:54.156Z,7.54
2022-12-15T04:59:58.411Z,7.54
2022-12-15T05:03:03.066Z,7.53
2022-12-15T05:06:07.419Z,7.53
2022-12-15T05:09:12.052Z,7.51
2022-12-15T05:12:16.449Z,7.51
2022-12-15T05:15:21.721Z,7.52
2022-12-15T05:18:28.381Z,7.56
2022-12-15T05:21:35.437Z,7.57
2022-12-15T05:24:39.915Z,7.57
2022-12-15T05:27:44.551Z,7.57
2022-12-15T05:30:48.977Z,7.60
2022-12-15T05:33:35.250Z,7.62
2022-12-15T05:36:21.742Z,7.60
2022-12-15T05:39:07.811Z,7.56
2022-12-15T05:41:55.065Z,7.58
2022-12-15T05:44:41.019Z,7.55
2022-12-15T05:47:26.870Z,7.55
2022-12-15T05:50:13.026Z,7.52
2022-12-15T05:52:59.992Z,7.52
2022-12-15T05:55:45.751Z,7.51
2022-12-15T05:58:31.902Z,7.48
2022-12-15T06:01:19.195Z,7.49
2022-12-15T06:04:05.455Z,7.49
2022-12-15T06:06:51.388Z,7.49
2022-12-15T06:09:37.282Z,7.51
2022-12-15T06:12:23.092Z,7.55
2022-12-15T06:15:10.448Z,7.59
2022-12-15T06:17:56.742Z,7.56
2022-12-15T06:20:42.942Z,7.65
2022-12-15T06:23:29.587Z,7.67
2022-12-15T06:26:23.667Z,7.69
2022-12-15T06:29:10.311Z,7.69
2022-12-15T06:31:55.948Z,7.71
2022-12-15T06:34:41.759Z,7.71
2022-12-15T06:37:27.444Z,7.75
2022-12-15T06:40:13.263Z,7.75
2022-12-15T06:42:59.247Z,7.77
2022-12-15T06:45:49.816Z,7.79
2022-12-15T06:48:35.838Z,7.73
2022-12-15T06:51:22.141Z,7.81
2022-12-15T06:54:11.286Z,7.87
2022-12-15T06:56:57.732Z,7.89
2022-12-15T06:59:43.737Z,7.90
2022-12-15T07:02:30.304Z,7.91
2022-12-15T07:05:16.600Z,7.91
2022-12-15T07:08:02.553Z,7.91
2022-12-15T07:10:48.347Z,7.87
2022-12-15T07:13:34.581Z,7.92
2022-12-15T07:16:22.492Z,7.94
2022-12-15T07:19:12.520Z,7.96
2022-12-15T07:21:59.089Z,8.01
2022-12-15T07:24:46.213Z,8.03
2022-12-15T07:27:42.219Z,8.09
2022-12-15T07:30:42.445Z,8.14
2022-12-15T07:33:28.963Z,8.20
2022-12-15T07:36:15.124Z,8.22
2022-12-15T07:39:01.564Z,8.26
2022-12-15T07:41:47.482Z,8.33
2022-12-15T07:44:35.321Z,8.35
2022-12-15T07:47:21.038Z,8.38
2022-12-15T07:50:07.852Z,8.41
2022-12-15T07:52:55.309Z,8.44
2022-12-15T07:56:05.506Z,8.48
2022-12-15T07:58:47.789Z,8.51
2022-12-15T08:01:35.335Z,8.54
2022-12-15T08:04:21.378Z,8.59
2022-12-15T08:07:09.005Z,8.63
2022-12-15T08:09:54.674Z,8.69
2022-12-15T08:12:40.509Z,8.77
2022-12-15T08:15:26.751Z,8.85
2022-12-15T08:18:12.773Z,8.90
2022-12-15T08:21:06.543Z,8.94
2022-12-15T08:23:52.242Z,8.95
2022-12-15T08:26:38.588Z,8.99
2022-12-15T08:29:50.113Z,9.03
2022-12-15T08:32:30.992Z,9.06
2022-12-15T08:35:46.787Z,9.07
2022-12-15T08:38:23.548Z,9.17
2022-12-15T08:41:17.961Z,9.22
2022-12-15T08:44:08.326Z,9.23
2022-12-15T08:46:54.095Z,9.32
2022-12-15T08:49:40.224Z,9.38
2022-12-15T08:52:26.171Z,9.40
2022-12-15T08:55:11.912Z,9.50
2022-12-15T08:57:57.622Z,9.58
2022-12-15T09:00:43.323Z,9.64
2022-12-15T09:03:29.930Z,9.74
2022-12-15T09:06:18.638Z,9.76
2022-12-15T09:09:07.652Z,9.79
2022-12-15T09:11:53.660Z,9.79
2022-12-15T09:14:39.402Z,9.77
2022-12-15T09:17:25.162Z,9.74
2022-12-15T09:20:15.245Z,9.79
2022-12-15T09:23:03.462Z,9.75
2022-12-15T09:25:49.275Z,9.81
2022-12-15T09:28:35.595Z,9.87
2022-12-15T09:31:28.857Z,9.89
2022-12-15T09:34:16.184Z,9.91
2022-12-15T09:37:02.357Z,9.91
2022-12-15T09:39:49.075Z,9.91
2022-12-15T09:42:35.200Z,9.88
2022-12-15T09:45:37.690Z,9.83
2022-12-15T09:48:25.247Z,9.76
2022-12-15T09:51:15.478Z,9.75
2022-12-15T09:54:01.977Z,9.75
2022-12-15T09:56:53.345Z,9.71
2022-12-15T09:59:57.335Z,9.77
2022-12-15T10:03:01.993Z,9.77
2022-12-15T10:06:16.680Z,9.77
2022-12-15T10:09:15.006Z,9.76
2022-12-15T10:12:08.935Z,9.73
2022-12-15T10:15:23.640Z,9.70
2022-12-15T10:18:35.303Z,9.68
2022-12-15T10:21:22.470Z,9.65
2022-12-15T10:24:44.498Z,9.66
2022-12-15T10:27:56.237Z,9.66
2022-12-15T10:30:58.945Z,9.68
2022-12-15T10:33:50.352Z,9.76
2022-12-15T10:36:36.237Z,9.79
2022-12-15T10:39:23.568Z,9.84
2022-12-15T10:42:17.041Z,9.91
2022-12-15T10:45:02.980Z,10.00
2022-12-15T10:47:59.061Z,10.06
2022-12-15T10:50:44.845Z,10.13
2022-12-15T10:53:37.655Z,10.19
2022-12-15T10:56:32.734Z,10.27
2022-12-15T10:59:34.187Z,10.34
2022-12-15T11:02:34.323Z,10.41
2022-12-15T11:05:20.785Z,10.46
2022-12-15T11:08:17.031Z,10.52
2022-12-15T11:11:26.010Z,10.55
2022-12-15T11:14:29.791Z,10.61
2022-12-15T11:17:21.633Z,10.66
2022-12-15T11:20:17.425Z,10.71
2022-12-15T11:23:13.981Z,10.82
2022-12-15T11:29:21.917Z,11.12
2022-12-15T11:32:11.259Z,11.18
2022-12-15T11:34:57.275Z,11.24
2022-12-15T11:37:44.263Z,11.27
2022-12-15T11:40:40.984Z,11.24
2022-12-15T11:43:46.442Z,11.23
2022-12-15T11:46:51.461Z,11.25
2022-12-15T11:49:59.135Z,11.28
2022-12-15T11:53:05.249Z,11.30
2022-12-15T11:56:06.981Z,11.30
2022-12-15T11:59:10.284Z,11.23
2022-12-15T12:05:22.786Z,11.21
2022-12-15T12:08:20.949Z,11.22
2022-12-15T12:11:23.228Z,11.22
2022-12-15T12:14:31.440Z,11.20
2022-12-15T12:17:27.974Z,11.22
2022-12-15T12:20:30.149Z,11.21
2022-12-15T12:23:32.294Z,11.20
2022-12-15T12:26:38.094Z,11.15
2022-12-15T12:29:30.821Z,11.14
2022-12-15T12:32:30.793Z,11.12
2022-12-15T12:35:31.858Z,11.10
2022-12-15T12:38:36.645Z,11.09
2022-12-15T12:41:44.036Z,11.07
2022-12-15T12:44:36.063Z,11.06
2022-12-15T12:47:44.841Z,11.04
2022-12-15T12:50:31.988Z,11.05
2022-12-15T12:53:32.990Z,11.02
2022-12-15T12:56:50.514Z,10.95
2022-12-15T12:59:39.242Z,10.96
2022-12-15T13:02:25.152Z,10.93
2022-12-15T13:05:33.207Z,10.91
2022-12-15T13:08:26.888Z,10.91
2022-12-15T13:11:53.795Z,10.87
2022-12-15T13:14:39.685Z,10.85
2022-12-15T13:17:31.324Z,10.80
2022-12-15T13:20:28.817Z,10.77
2022-12-15T13:23:23.992Z,10.73
2022-12-15T13:26:10.815Z,10.70
2022-12-15T13:28:57.245Z,10.67
2022-12-15T13:31:49.644Z,10.60
2022-12-15T13:34:38.956Z,10.57
2022-12-15T13:37:46.981Z,10.57
2022-12-15T13:40:35.351Z,10.57
2022-12-15T13:43:27.335Z,10.54
2022-12-15T13:46:20.667Z,10.51
2022-12-15T13:49:17.388Z,10.48
2022-12-15T13:52:12.597Z,10.45
2022-12-15T13:55:00.271Z,10.40
2022-12-15T13:57:57.320Z,10.37
2022-12-15T14:00:55.017Z,10.32
2022-12-15T14:03:41.080Z,10.26
2022-12-15T14:06:38.508Z,10.26
2022-12-15T14:09:29.055Z,10.20
2022-12-15T14:12:15.020Z,10.20
2022-12-15T14:15:01.464Z,10.20
2022-12-15T14:17:51.414Z,10.18
2022-12-15T14:20:41.257Z,10.18
2022-12-15T14:23:30.252Z,10.17
2022-12-15T14:26:16.631Z,10.16
2022-12-15T14:29:05.543Z,10.19
2022-12-15T14:31:56.605Z,10.18
2022-12-15T14:34:43.301Z,10.19
2022-12-15T14:37:29.387Z,10.19
2022-12-15T14:40:17.509Z,10.19
2022-12-15T14:43:04.946Z,10.17
2022-12-15T14:45:57.589Z,10.16
2022-12-15T14:48:50.507Z,10.18
2022-12-15T14:51:43.490Z,10.18
2022-12-15T14:54:31.754Z,10.18
2022-12-15T14:57:25.405Z,10.15
2022-12-15T15:00:25.809Z,10.17
2022-12-15T15:03:04.784Z,10.99
2022-12-15T15:03:07.046Z,11.20
2022-12-15T15:03:18.487Z,10.18
2022-12-15T15:06:05.465Z,10.17
2022-12-15T15:08:53.011Z,10.17
2022-12-15T15:11:40.900Z,10.19
2022-12-15T15:14:32.925Z,10.18
2022-12-15T15:17:27.038Z,10.20
2022-12-15T15:20:26.908Z,10.21
2022-12-15T15:23:19.376Z,10.21
2022-12-15T15:26:05.404Z,10.21
2022-12-15T15:28:51.621Z,10.23
2022-12-15T15:31:41.691Z,10.19
2022-12-15T15:34:28.093Z,10.23
2022-12-15T15:37:18.493Z,10.24
2022-12-15T15:40:06.723Z,10.21
2022-12-15T15:42:52.432Z,10.21
2022-12-15T15:45:39.683Z,10.21
2022-12-15T15:48:27.653Z,10.25
2022-12-15T15:51:14.313Z,10.26
2022-12-15T15:54:05.712Z,10.25
2022-12-15T15:56:51.705Z,10.24
2022-12-15T15:59:39.932Z,10.25
2022-12-15T16:02:26.074Z,10.26
2022-12-15T16:05:12.182Z,10.26
2022-12-15T16:07:58.682Z,10.26
2022-12-15T16:10:47.528Z,10.23
2022-12-15T16:13:33.341Z,10.26
2022-12-15T16:16:22.053Z,10.26
2022-12-15T16:19:08.132Z,10.19
2022-12-15T16:21:55.505Z,10.25
2022-12-15T16:24:42.561Z,10.27
2022-12-15T16:27:28.257Z,10.28
2022-12-15T16:30:23.577Z,10.27
2022-12-15T16:33:09.864Z,10.28
2022-12-15T16:35:55.924Z,10.27
2022-12-15T16:38:42.870Z,10.27
2022-12-15T16:41:28.575Z,10.27
2022-12-15T16:44:14.211Z,10.26
2022-12-15T16:46:59.997Z,10.25
2022-12-15T16:49:45.746Z,10.27
2022-12-15T16:52:31.392Z,10.27
2022-12-15T16:55:22.430Z,10.24
2022-12-15T16:58:12.030Z,10.25
2022-12-15T17:00:58.418Z,10.24
2022-12-15T17:03:44.551Z,10.18
2022-12-15T17:06:30.374Z,10.24
2022-12-15T17:09:20.963Z,10.23
2022-12-15T17:12:08.198Z,10.21
2022-12-15T17:14:54.264Z,10.20
2022-12-15T17:17:40.497Z,10.18
2022-12-15T17:20:30.273Z,10.19
2022-12-15T17:23:19.677Z,10.16
2022-12-15T17:26:28.502Z,10.19
2022-12-15T17:29:18.416Z,10.19
2022-12-15T17:32:06.145Z,10.17
2022-12-15T17:34:52.068Z,10.21
2022-12-15T17:37:38.269Z,10.21
2022-12-15T17:40:24.286Z,10.21
2022-12-15T17:43:23.000Z,10.21
2022-12-15T17:46:08.950Z,10.21
2022-12-15T17:48:55.081Z,10.19
2022-12-15T17:51:43.393Z,10.23
2022-12-15T17:54:30.000Z,10.23
2022-12-15T17:57:16.101Z,10.23
2022-12-15T18:00:02.071Z,10.25
2022-12-15T18:02:51.121Z,10.27
2022-12-15T18:05:37.534Z,10.26
2022-12-15T18:08:26.159Z,10.26
2022-12-15T18:11:15.783Z,10.26
2022-12-15T18:14:01.753Z,10.24
2022-12-15T18:16:47.557Z,10.25
2022-12-15T18:19:35.116Z,10.23
2022-12-15T18:22:23.438Z,10.24
2022-12-15T18:25:21.215Z,10.25
2022-12-15T18:28:28.680Z,10.20
2022-12-15T18:31:26.078Z,10.17
2022-12-15T18:34:21.151Z,10.19
2022-12-15T18:37:16.540Z,10.17
2022-12-15T18:40:04.935Z,10.17
2022-12-15T18:42:50.973Z,10.15
2022-12-15T18:45:36.670Z,10.16
2022-12-15T18:48:27.072Z,10.16
2022-12-15T18:51:19.776Z,10.15
2022-12-15T18:54:20.729Z,10.12
2022-12-15T18:57:28.097Z,10.12
2022-12-15T19:00:13.845Z,10.14
2022-12-15T19:03:02.414Z,10.12
2022-12-15T19:05:49.115Z,10.12
2022-12-15T19:08:36.244Z,10.11
2022-12-15T19:11:31.042Z,10.09
2022-12-15T19:14:36.777Z,10.08
2022-12-15T19:17:42.748Z,10.07
2022-12-15T19:20:47.312Z,10.05
2022-12-15T19:23:33.681Z,10.04
2022-12-15T19:26:19.922Z,10.02
2022-12-15T19:29:22.536Z,10.00
2022-12-15T19:32:08.836Z,10.00
2022-12-15T19:34:54.527Z,9.99
2022-12-15T19:37:42.893Z,9.96
2022-12-15T19:40:30.745Z,9.94
2022-12-15T19:43:17.378Z,9.92
2022-12-15T19:46:03.091Z,9.90
2022-12-15T19:48:48.697Z,9.89
2022-12-15T19:51:34.411Z,9.84
2022-12-15T19:54:22.206Z,9.80
2022-12-15T19:57:16.561Z,9.83
2022-12-15T20:00:03.174Z,9.81
2022-12-15T20:02:57.612Z,9.79
2022-12-15T20:05:44.067Z,9.76
2022-12-15T20:08:34.708Z,9.75
2022-12-15T20:11:21.581Z,9.75
2022-12-15T20:14:15.438Z,9.75
2022-12-15T20:17:02.276Z,9.75
2022-12-15T20:19:47.937Z,9.75
2022-12-15T20:22:33.686Z,9.76
2022-12-15T20:25:23.991Z,9.78
2022-12-15T20:28:30.337Z,9.76
2022-12-15T20:31:18.321Z,9.78
2022-12-15T20:34:04.160Z,9.76
2022-12-15T20:36:50.138Z,9.78
2022-12-15T20:39:36.016Z,9.79
2022-12-15T20:42:22.265Z,9.81
2022-12-15T20:45:07.922Z,9.84
2022-12-15T20:47:55.053Z,9.81
2022-12-15T20:50:48.909Z,9.85
2022-12-15T20:53:35.142Z,9.83
2022-12-15T20:56:23.080Z,9.83
2022-12-15T20:59:09.190Z,9.82
2022-12-15T21:01:55.082Z,9.82
2022-12-15T21:04:41.201Z,9.80
2022-12-15T21:07:27.185Z,9.81
2022-12-15T21:10:14.501Z,9.83
2022-12-15T21:13:00.403Z,9.80
2022-12-15T21:15:46.884Z,9.83
2022-12-15T21:21:43.720Z,9.77
2022-12-15T21:24:29.808Z,9.81
2022-12-15T21:27:15.328Z,9.80
2022-12-15T21:30:00.869Z,9.80
2022-12-15T21:32:50.730Z,9.80
2022-12-15T21:35:39.227Z,9.80
2022-12-15T21:38:34.935Z,9.79
2022-12-15T21:41:22.853Z,9.78
2022-12-15T21:44:15.361Z,9.76
2022-12-15T21:47:01.136Z,9.73
2022-12-15T21:49:46.834Z,9.72
2022-12-15T21:52:32.714Z,9.70
2022-12-15T21:55:21.426Z,9.66
2022-12-15T21:58:19.254Z,9.67
2022-12-15T22:01:05.318Z,9.66
2022-12-15T22:03:53.513Z,9.65
2022-12-15T22:06:40.660Z,9.59
2022-12-15T22:09:26.297Z,9.61
2022-12-15T22:12:23.299Z,9.58
2022-12-15T22:15:21.115Z,9.57
2022-12-15T22:18:13.492Z,9.54
2022-12-15T22:20:59.160Z,9.55
2022-12-15T22:23:45.021Z,9.56
2022-12-15T22:26:31.753Z,9.53
2022-12-15T22:29:20.866Z,9.56
2022-12-15T22:32:14.726Z,9.52
2022-12-15T22:35:00.420Z,9.52
2022-12-15T22:37:47.244Z,9.49
2022-12-15T22:40:33.009Z,9.49
2022-12-15T22:43:20.070Z,9.47
2022-12-15T22:46:08.200Z,9.46
2022-12-15T22:48:54.776Z,9.46
2022-12-15T22:51:41.323Z,9.46
2022-12-15T22:54:29.049Z,9.45
2022-12-15T22:57:22.694Z,9.40
2022-12-15T23:00:11.070Z,9.43
2022-12-15T23:05:48.962Z,9.45
2022-12-15T23:08:37.728Z,9.41
2022-12-15T23:11:39.189Z,9.45
2022-12-15T23:14:44.718Z,9.44
2022-12-15T23:17:30.685Z,9.41
2022-12-15T23:20:16.350Z,9.41
2022-12-15T23:23:02.214Z,9.37
2022-12-15T23:25:48.030Z,9.35
2022-12-15T23:28:34.282Z,9.37
2022-12-15T23:31:20.662Z,9.36
2022-12-15T23:34:06.251Z,9.37
2022-12-15T23:36:51.956Z,9.34
2022-12-15T23:39:37.453Z,9.32
2022-12-15T23:42:22.957Z,9.30
2022-12-15T23:45:09.513Z,9.30
2022-12-15T23:47:55.459Z,9.29
2022-12-15T23:50:41.382Z,9.24
2022-12-15T23:53:27.283Z,9.21
2022-12-15T23:56:18.586Z,9.21
2022-12-15T23:59:04.357Z,9.17
